sensor_id;sensor_type;location;lat;lon;timestamp;pressure;altitude;pressure_sealevel;temperature;humidity
34658;BME280;20865;43.312;27.152;2022-08-02T00:00:46;100056.46;;;27.99;39.63
34658;BME280;20865;43.312;27.152;2022-08-02T00:03:14;100060.74;;;27.94;39.77
34658;BME280;20865;43.312;27.152;2022-08-02T00:05:42;100060.73;;;27.90;39.78
34658;BME280;20865;43.312;27.152;2022-08-02T00:08:09;100057.94;;;27.86;40.01
34658;BME280;20865;43.312;27.152;2022-08-02T00:10:37;100057.78;;;27.83;40.16
34658;BME280;20865;43.312;27.152;2022-08-02T00:13:04;100057.09;;;27.89;40.16
34658;BME280;20865;43.312;27.152;2022-08-02T00:15:32;100060.13;;;27.78;40.22
34658;BME280;20865;43.312;27.152;2022-08-02T00:18:00;100059.98;;;27.80;40.21
34658;BME280;20865;43.312;27.152;2022-08-02T00:20:27;100053.08;;;27.75;40.31
34658;BME280;20865;43.312;27.152;2022-08-02T00:22:55;100059.20;;;27.69;40.46
34658;BME280;20865;43.312;27.152;2022-08-02T00:25:22;100058.52;;;27.71;40.50
34658;BME280;20865;43.312;27.152;2022-08-02T00:27:50;100054.77;;;27.72;40.50
34658;BME280;20865;43.312;27.152;2022-08-02T00:30:18;100057.28;;;27.62;40.71
34658;BME280;20865;43.312;27.152;2022-08-02T00:32:45;100054.64;;;27.78;40.44
34658;BME280;20865;43.312;27.152;2022-08-02T00:35:13;100056.02;;;27.78;40.44
34658;BME280;20865;43.312;27.152;2022-08-02T00:37:41;100059.73;;;27.73;40.62
34658;BME280;20865;43.312;27.152;2022-08-02T00:40:10;100058.70;;;27.74;40.64
34658;BME280;20865;43.312;27.152;2022-08-02T00:42:38;100061.36;;;27.80;40.63
34658;BME280;20865;43.312;27.152;2022-08-02T00:45:07;100057.94;;;27.86;40.41
34658;BME280;20865;43.312;27.152;2022-08-02T00:47:34;100055.34;;;27.76;39.99
34658;BME280;20865;43.312;27.152;2022-08-02T00:50:02;100055.34;;;27.76;39.99
34658;BME280;20865;43.312;27.152;2022-08-02T00:52:30;100052.17;;;27.71;40.12
34658;BME280;20865;43.312;27.152;2022-08-02T00:54:57;100054.19;;;27.65;40.29
34658;BME280;20865;43.312;27.152;2022-08-02T00:57:25;100056.91;;;27.61;40.50
34658;BME280;20865;43.312;27.152;2022-08-02T00:59:53;100053.48;;;27.59;40.66
34658;BME280;20865;43.312;27.152;2022-08-02T01:02:20;100058.67;;;27.44;41.09
34658;BME280;20865;43.312;27.152;2022-08-02T01:04:48;100055.47;;;27.48;41.03
34658;BME280;20865;43.312;27.152;2022-08-02T01:07:15;100051.70;;;27.49;41.01
34658;BME280;20865;43.312;27.152;2022-08-02T01:09:44;100058.53;;;27.45;41.05
34658;BME280;20865;43.312;27.152;2022-08-02T01:12:12;100046.19;;;27.45;40.92
34658;BME280;20865;43.312;27.152;2022-08-02T01:14:49;100046.19;;;27.45;40.92
34658;BME280;20865;43.312;27.152;2022-08-02T01:20:34;100058.38;;;27.51;40.75
34658;BME280;20865;43.312;27.152;2022-08-02T01:28:46;100074.45;;;27.42;40.75
34658;BME280;20865;43.312;27.152;2022-08-02T01:31:26;100081.53;;;27.48;40.70
34658;BME280;20865;43.312;27.152;2022-08-02T01:36:34;100082.99;;;27.39;40.19
34658;BME280;20865;43.312;27.152;2022-08-02T01:39:02;100083.28;;;27.31;40.31
34658;BME280;20865;43.312;27.152;2022-08-02T01:41:32;100084.79;;;27.30;40.32
34658;BME280;20865;43.312;27.152;2022-08-02T01:44:02;100092.96;;;27.22;40.44
34658;BME280;20865;43.312;27.152;2022-08-02T01:46:32;100086.08;;;27.18;40.57
34658;BME280;20865;43.312;27.152;2022-08-02T01:49:03;100085.67;;;27.13;40.65
34658;BME280;20865;43.312;27.152;2022-08-02T01:51:33;100083.15;;;27.01;40.87
34658;BME280;20865;43.312;27.152;2022-08-02T01:54:18;100085.03;;;27.01;40.84
34658;BME280;20865;43.312;27.152;2022-08-02T01:56:48;100090.91;;;27.20;41.02
34658;BME280;20865;43.312;27.152;2022-08-02T01:59:20;100092.33;;;26.92;41.61
34658;BME280;20865;43.312;27.152;2022-08-02T02:01:50;100095.25;;;26.95;41.73
34658;BME280;20865;43.312;27.152;2022-08-02T02:04:19;100090.48;;;26.97;41.82
34658;BME280;20865;43.312;27.152;2022-08-02T02:06:48;100093.05;;;26.98;41.85
34658;BME280;20865;43.312;27.152;2022-08-02T02:09:18;100087.20;;;26.93;41.70
34658;BME280;20865;43.312;27.152;2022-08-02T02:11:46;100093.36;;;26.95;41.34
34658;BME280;20865;43.312;27.152;2022-08-02T02:14:16;100091.85;;;26.97;41.26
34658;BME280;20865;43.312;27.152;2022-08-02T02:16:45;100092.20;;;26.98;41.27
34658;BME280;20865;43.312;27.152;2022-08-02T02:19:15;100091.95;;;26.91;41.25
34658;BME280;20865;43.312;27.152;2022-08-02T02:21:44;100091.10;;;26.91;41.37
34658;BME280;20865;43.312;27.152;2022-08-02T02:24:12;100082.20;;;26.89;41.44
34658;BME280;20865;43.312;27.152;2022-08-02T02:26:41;100085.08;;;26.87;41.44
34658;BME280;20865;43.312;27.152;2022-08-02T02:29:10;100085.38;;;26.84;41.53
34658;BME280;20865;43.312;27.152;2022-08-02T02:31:41;100087.74;;;26.79;41.61
34658;BME280;20865;43.312;27.152;2022-08-02T02:34:14;100092.41;;;26.82;41.60
34658;BME280;20865;43.312;27.152;2022-08-02T02:36:49;100089.73;;;26.73;41.78
34658;BME280;20865;43.312;27.152;2022-08-02T02:39:14;100096.29;;;26.62;41.88
34658;BME280;20865;43.312;27.152;2022-08-02T02:41:43;100101.84;;;26.70;41.65
34658;BME280;20865;43.312;27.152;2022-08-02T02:44:12;100099.41;;;26.67;41.62
34658;BME280;20865;43.312;27.152;2022-08-02T02:46:42;100099.11;;;26.70;41.46
34658;BME280;20865;43.312;27.152;2022-08-02T02:49:11;100099.50;;;26.57;41.70
34658;BME280;20865;43.312;27.152;2022-08-02T02:51:40;100103.31;;;26.60;41.76
34658;BME280;20865;43.312;27.152;2022-08-02T02:54:09;100099.08;;;26.52;42.01
34658;BME280;20865;43.312;27.152;2022-08-02T02:56:38;100110.38;;;26.53;41.97
34658;BME280;20865;43.312;27.152;2022-08-02T02:59:08;100111.45;;;26.56;41.99
34658;BME280;20865;43.312;27.152;2022-08-02T03:01:36;100109.39;;;26.54;42.12
34658;BME280;20865;43.312;27.152;2022-08-02T03:04:07;100113.20;;;26.57;41.90
34658;BME280;20865;43.312;27.152;2022-08-02T03:06:38;100112.98;;;26.55;41.92
34658;BME280;20865;43.312;27.152;2022-08-02T03:09:07;100108.37;;;26.55;41.95
34658;BME280;20865;43.312;27.152;2022-08-02T03:11:36;100114.40;;;26.59;42.21
34658;BME280;20865;43.312;27.152;2022-08-02T03:14:07;100112.38;;;26.61;42.05
34658;BME280;20865;43.312;27.152;2022-08-02T03:16:34;100106.48;;;26.56;41.97
34658;BME280;20865;43.312;27.152;2022-08-02T03:19:03;100117.34;;;26.62;41.81
34658;BME280;20865;43.312;27.152;2022-08-02T03:21:30;100117.00;;;26.60;41.65
34658;BME280;20865;43.312;27.152;2022-08-02T03:23:58;100114.44;;;26.63;41.57
34658;BME280;20865;43.312;27.152;2022-08-02T03:26:25;100117.17;;;26.63;41.57
34658;BME280;20865;43.312;27.152;2022-08-02T03:28:53;100116.53;;;26.65;41.59
34658;BME280;20865;43.312;27.152;2022-08-02T03:31:20;100119.19;;;26.57;41.84
34658;BME280;20865;43.312;27.152;2022-08-02T03:33:48;100119.02;;;26.58;42.01
34658;BME280;20865;43.312;27.152;2022-08-02T03:36:18;100114.91;;;26.58;42.02
34658;BME280;20865;43.312;27.152;2022-08-02T03:38:47;100127.06;;;26.60;42.12
34658;BME280;20865;43.312;27.152;2022-08-02T03:41:17;100132.20;;;26.59;42.26
34658;BME280;20865;43.312;27.152;2022-08-02T03:43:45;100130.48;;;26.58;42.26
34658;BME280;20865;43.312;27.152;2022-08-02T03:46:22;100129.50;;;26.63;42.24
34658;BME280;20865;43.312;27.152;2022-08-02T03:48:49;100135.50;;;26.63;42.31
34658;BME280;20865;43.312;27.152;2022-08-02T03:51:18;100134.12;;;26.63;42.43
34658;BME280;20865;43.312;27.152;2022-08-02T03:53:47;100137.89;;;26.62;42.52
34658;BME280;20865;43.312;27.152;2022-08-02T03:56:15;100140.11;;;26.62;42.58
34658;BME280;20865;43.312;27.152;2022-08-02T03:58:43;100144.61;;;26.67;42.63
34658;BME280;20865;43.312;27.152;2022-08-02T04:01:11;100145.67;;;26.70;42.88
34658;BME280;20865;43.312;27.152;2022-08-02T04:03:38;100148.38;;;26.66;43.09
34658;BME280;20865;43.312;27.152;2022-08-02T04:06:06;100143.48;;;26.74;43.03
34658;BME280;20865;43.312;27.152;2022-08-02T04:08:33;100147.16;;;26.78;43.03
34658;BME280;20865;43.312;27.152;2022-08-02T04:11:01;100150.62;;;26.84;43.04
34658;BME280;20865;43.312;27.152;2022-08-02T04:13:47;100152.63;;;26.92;42.87
34658;BME280;20865;43.312;27.152;2022-08-02T04:16:19;100160.71;;;26.98;42.98
34658;BME280;20865;43.312;27.152;2022-08-02T04:19:06;100163.48;;;27.02;43.29
34658;BME280;20865;43.312;27.152;2022-08-02T04:21:21;100169.52;;;27.05;43.30
34658;BME280;20865;43.312;27.152;2022-08-02T04:23:50;100160.98;;;27.08;43.40
34658;BME280;20865;43.312;27.152;2022-08-02T04:26:19;100162.87;;;27.22;43.25
34658;BME280;20865;43.312;27.152;2022-08-02T04:28:53;100163.35;;;27.17;43.59
34658;BME280;20865;43.312;27.152;2022-08-02T04:31:22;100161.91;;;27.27;43.32
34658;BME280;20865;43.312;27.152;2022-08-02T04:33:55;100170.00;;;27.33;43.47
34658;BME280;20865;43.312;27.152;2022-08-02T04:36:25;100171.60;;;27.39;43.38
34658;BME280;20865;43.312;27.152;2022-08-02T04:38:54;100168.44;;;27.48;43.61
34658;BME280;20865;43.312;27.152;2022-08-02T04:41:40;100168.16;;;27.55;43.43
34658;BME280;20865;43.312;27.152;2022-08-02T04:44:10;100170.13;;;27.67;43.47
34658;BME280;20865;43.312;27.152;2022-08-02T04:46:42;100174.72;;;27.80;43.21
34658;BME280;20865;43.312;27.152;2022-08-02T04:49:14;100169.45;;;27.87;43.15
34658;BME280;20865;43.312;27.152;2022-08-02T04:51:45;100172.42;;;27.93;43.06
34658;BME280;20865;43.312;27.152;2022-08-02T04:54:14;100174.16;;;27.98;42.93
34658;BME280;20865;43.312;27.152;2022-08-02T04:56:45;100176.30;;;28.13;42.88
34658;BME280;20865;43.312;27.152;2022-08-02T04:59:15;100180.50;;;28.25;42.80
34658;BME280;20865;43.312;27.152;2022-08-02T05:01:42;100174.42;;;28.39;42.48
34658;BME280;20865;43.312;27.152;2022-08-02T05:04:10;100173.63;;;28.55;42.13
34658;BME280;20865;43.312;27.152;2022-08-02T05:06:37;100173.83;;;28.66;42.05
34658;BME280;20865;43.312;27.152;2022-08-02T05:09:05;100169.44;;;28.81;42.06
34658;BME280;20865;43.312;27.152;2022-08-02T05:11:33;100170.91;;;29.02;42.04
34658;BME280;20865;43.312;27.152;2022-08-02T05:14:00;100170.24;;;29.20;41.70
34658;BME280;20865;43.312;27.152;2022-08-02T05:16:28;100176.47;;;29.47;41.29
34658;BME280;20865;43.312;27.152;2022-08-02T05:18:56;100174.95;;;29.64;40.96
34658;BME280;20865;43.312;27.152;2022-08-02T05:21:23;100173.89;;;29.90;40.30
34658;BME280;20865;43.312;27.152;2022-08-02T05:23:51;100170.91;;;30.12;40.51
34658;BME280;20865;43.312;27.152;2022-08-02T05:26:19;100173.84;;;30.23;40.06
34658;BME280;20865;43.312;27.152;2022-08-02T05:28:46;100178.30;;;30.15;39.32
34658;BME280;20865;43.312;27.152;2022-08-02T05:31:14;100182.80;;;30.17;39.71
34658;BME280;20865;43.312;27.152;2022-08-02T05:33:41;100188.33;;;30.21;39.76
34658;BME280;20865;43.312;27.152;2022-08-02T05:36:09;100184.16;;;30.29;39.66
34658;BME280;20865;43.312;27.152;2022-08-02T05:38:37;100179.71;;;30.24;40.04
34658;BME280;20865;43.312;27.152;2022-08-02T05:41:05;100175.75;;;30.02;40.29
34658;BME280;20865;43.312;27.152;2022-08-02T05:43:33;100172.54;;;29.78;40.80
34658;BME280;20865;43.312;27.152;2022-08-02T05:46:00;100166.50;;;29.70;41.47
34658;BME280;20865;43.312;27.152;2022-08-02T05:48:28;100183.36;;;29.63;41.90
34658;BME280;20865;43.312;27.152;2022-08-02T05:51:04;100174.76;;;29.70;42.32
34658;BME280;20865;43.312;27.152;2022-08-02T05:53:49;100176.45;;;29.91;41.38
34658;BME280;20865;43.312;27.152;2022-08-02T05:56:23;100185.43;;;30.57;40.60
34658;BME280;20865;43.312;27.152;2022-08-02T05:58:56;100177.95;;;30.74;39.46
34658;BME280;20865;43.312;27.152;2022-08-02T06:01:33;100176.47;;;30.99;39.23
34658;BME280;20865;43.312;27.152;2022-08-02T06:04:05;100178.78;;;31.18;39.09
34658;BME280;20865;43.312;27.152;2022-08-02T06:06:34;100175.59;;;31.57;37.21
34658;BME280;20865;43.312;27.152;2022-08-02T06:09:07;100187.44;;;31.61;37.53
34658;BME280;20865;43.312;27.152;2022-08-02T06:11:36;100186.06;;;31.61;37.01
34658;BME280;20865;43.312;27.152;2022-08-02T06:14:07;100193.87;;;32.14;35.72
34658;BME280;20865;43.312;27.152;2022-08-02T06:16:35;100193.20;;;32.46;35.33
34658;BME280;20865;43.312;27.152;2022-08-02T06:19:03;100193.59;;;32.39;35.45
34658;BME280;20865;43.312;27.152;2022-08-02T06:21:31;100188.77;;;32.56;35.07
34658;BME280;20865;43.312;27.152;2022-08-02T06:23:59;100184.39;;;32.61;34.96
34658;BME280;20865;43.312;27.152;2022-08-02T06:26:27;100188.80;;;32.66;34.42
34658;BME280;20865;43.312;27.152;2022-08-02T06:28:57;100185.27;;;32.72;34.24
34658;BME280;20865;43.312;27.152;2022-08-02T06:31:24;100194.41;;;33.03;34.06
34658;BME280;20865;43.312;27.152;2022-08-02T06:33:52;100182.97;;;33.16;33.75
34658;BME280;20865;43.312;27.152;2022-08-02T06:36:39;100184.61;;;33.22;33.43
34658;BME280;20865;43.312;27.152;2022-08-02T06:41:42;100185.47;;;33.33;33.02
34658;BME280;20865;43.312;27.152;2022-08-02T06:44:10;100175.45;;;33.42;33.59
34658;BME280;20865;43.312;27.152;2022-08-02T06:46:38;100181.84;;;33.32;33.44
34658;BME280;20865;43.312;27.152;2022-08-02T06:49:06;100181.20;;;33.30;32.90
34658;BME280;20865;43.312;27.152;2022-08-02T06:51:34;100171.45;;;33.24;33.29
34658;BME280;20865;43.312;27.152;2022-08-02T06:54:01;100168.93;;;33.29;32.49
34658;BME280;20865;43.312;27.152;2022-08-02T06:56:29;100170.45;;;33.42;31.85
34658;BME280;20865;43.312;27.152;2022-08-02T06:58:56;100165.62;;;33.55;31.88
34658;BME280;20865;43.312;27.152;2022-08-02T07:01:24;100170.31;;;33.72;32.26
34658;BME280;20865;43.312;27.152;2022-08-02T07:03:53;100167.19;;;33.92;31.64
34658;BME280;20865;43.312;27.152;2022-08-02T07:06:20;100158.24;;;34.01;31.31
34658;BME280;20865;43.312;27.152;2022-08-02T07:08:48;100165.13;;;34.11;30.86
34658;BME280;20865;43.312;27.152;2022-08-02T07:11:16;100158.61;;;34.26;31.12
34658;BME280;20865;43.312;27.152;2022-08-02T07:13:44;100171.80;;;34.24;31.34
34658;BME280;20865;43.312;27.152;2022-08-02T07:16:12;100164.61;;;34.64;30.46
34658;BME280;20865;43.312;27.152;2022-08-02T07:18:39;100167.10;;;34.70;29.88
34658;BME280;20865;43.312;27.152;2022-08-02T07:21:07;100169.40;;;34.83;30.40
34658;BME280;20865;43.312;27.152;2022-08-02T07:23:35;100164.50;;;34.92;30.36
34658;BME280;20865;43.312;27.152;2022-08-02T07:26:02;100169.86;;;35.00;30.44
34658;BME280;20865;43.312;27.152;2022-08-02T07:28:30;100171.30;;;35.07;29.95
34658;BME280;20865;43.312;27.152;2022-08-02T07:30:58;100168.42;;;34.80;30.08
34658;BME280;20865;43.312;27.152;2022-08-02T07:33:25;100166.45;;;34.98;29.20
34658;BME280;20865;43.312;27.152;2022-08-02T07:35:53;100164.16;;;34.84;29.44
34658;BME280;20865;43.312;27.152;2022-08-02T07:38:22;100173.00;;;34.77;29.15
34658;BME280;20865;43.312;27.152;2022-08-02T07:40:50;100166.47;;;34.74;29.58
34658;BME280;20865;43.312;27.152;2022-08-02T07:43:18;100158.74;;;34.87;29.59
34658;BME280;20865;43.312;27.152;2022-08-02T07:45:45;100173.88;;;34.84;29.56
34658;BME280;20865;43.312;27.152;2022-08-02T07:48:13;100170.16;;;34.88;29.62
34658;BME280;20865;43.312;27.152;2022-08-02T07:50:41;100165.48;;;34.95;29.24
34658;BME280;20865;43.312;27.152;2022-08-02T07:53:08;100175.03;;;35.03;29.33
34658;BME280;20865;43.312;27.152;2022-08-02T07:55:36;100164.56;;;35.43;29.38
34658;BME280;20865;43.312;27.152;2022-08-02T07:58:04;100165.08;;;35.49;29.37
34658;BME280;20865;43.312;27.152;2022-08-02T08:00:32;100165.94;;;35.49;28.55
34658;BME280;20865;43.312;27.152;2022-08-02T08:03:00;100168.79;;;35.32;28.81
34658;BME280;20865;43.312;27.152;2022-08-02T08:05:27;100176.49;;;35.30;28.44
34658;BME280;20865;43.312;27.152;2022-08-02T08:07:55;100166.12;;;35.28;28.42
34658;BME280;20865;43.312;27.152;2022-08-02T08:10:23;100166.12;;;35.28;29.09
34658;BME280;20865;43.312;27.152;2022-08-02T08:12:50;100162.59;;;35.23;29.23
34658;BME280;20865;43.312;27.152;2022-08-02T08:15:18;100168.09;;;35.47;28.72
34658;BME280;20865;43.312;27.152;2022-08-02T08:17:45;100173.94;;;35.42;28.97
34658;BME280;20865;43.312;27.152;2022-08-02T08:20:13;100178.27;;;35.84;28.15
34658;BME280;20865;43.312;27.152;2022-08-02T08:22:41;100164.38;;;35.84;28.14
34658;BME280;20865;43.312;27.152;2022-08-02T08:25:09;100167.28;;;36.07;27.59
34658;BME280;20865;43.312;27.152;2022-08-02T08:27:37;100169.08;;;36.23;27.47
34658;BME280;20865;43.312;27.152;2022-08-02T08:30:05;100173.52;;;36.44;27.55
34658;BME280;20865;43.312;27.152;2022-08-02T08:32:33;100158.55;;;36.52;27.33
34658;BME280;20865;43.312;27.152;2022-08-02T08:35:00;100157.59;;;36.49;26.87
34658;BME280;20865;43.312;27.152;2022-08-02T08:37:38;100158.16;;;36.64;27.49
34658;BME280;20865;43.312;27.152;2022-08-02T08:40:04;100160.84;;;36.68;27.91
34658;BME280;20865;43.312;27.152;2022-08-02T08:42:33;100159.88;;;36.72;26.63
34658;BME280;20865;43.312;27.152;2022-08-02T08:45:01;100151.37;;;36.83;26.68
34658;BME280;20865;43.312;27.152;2022-08-02T08:47:37;100161.17;;;36.85;27.87
34658;BME280;20865;43.312;27.152;2022-08-02T08:50:11;100160.41;;;37.01;26.06
34658;BME280;20865;43.312;27.152;2022-08-02T08:52:52;100153.73;;;36.79;26.44
34658;BME280;20865;43.312;27.152;2022-08-02T08:55:15;100165.72;;;36.44;27.46
34658;BME280;20865;43.312;27.152;2022-08-02T08:57:43;100159.68;;;36.11;27.35
34658;BME280;20865;43.312;27.152;2022-08-02T09:00:12;100159.09;;;36.38;27.50
34658;BME280;20865;43.312;27.152;2022-08-02T09:02:42;100158.63;;;36.84;26.91
34658;BME280;20865;43.312;27.152;2022-08-02T09:05:11;100156.08;;;36.40;26.24
34658;BME280;20865;43.312;27.152;2022-08-02T09:07:40;100152.44;;;36.53;26.83
34658;BME280;20865;43.312;27.152;2022-08-02T09:15:44;100154.07;;;36.38;26.69
34658;BME280;20865;43.312;27.152;2022-08-02T09:18:12;100154.70;;;36.33;26.76
34658;BME280;20865;43.312;27.152;2022-08-02T09:21:00;100146.23;;;36.51;26.86
34658;BME280;20865;43.312;27.152;2022-08-02T09:23:45;100140.06;;;36.48;26.59
34658;BME280;20865;43.312;27.152;2022-08-02T09:26:15;100145.31;;;36.34;26.59
34658;BME280;20865;43.312;27.152;2022-08-02T09:28:46;100142.47;;;36.12;26.51
34658;BME280;20865;43.312;27.152;2022-08-02T09:31:17;100152.60;;;36.22;26.31
34658;BME280;20865;43.312;27.152;2022-08-02T09:33:51;100132.92;;;36.30;26.55
34658;BME280;20865;43.312;27.152;2022-08-02T09:36:20;100140.88;;;36.56;26.57
34658;BME280;20865;43.312;27.152;2022-08-02T09:38:57;100137.61;;;36.72;26.60
34658;BME280;20865;43.312;27.152;2022-08-02T09:41:27;100143.62;;;36.69;26.00
34658;BME280;20865;43.312;27.152;2022-08-02T09:43:56;100139.03;;;36.65;25.88
34658;BME280;20865;43.312;27.152;2022-08-02T09:46:27;100140.55;;;36.84;26.58
34658;BME280;20865;43.312;27.152;2022-08-02T09:49:00;100140.58;;;37.00;26.54
34658;BME280;20865;43.312;27.152;2022-08-02T09:51:34;100129.81;;;37.10;25.76
34658;BME280;20865;43.312;27.152;2022-08-02T09:54:04;100138.42;;;37.24;26.04
34658;BME280;20865;43.312;27.152;2022-08-02T09:56:44;100134.11;;;37.28;25.10
34658;BME280;20865;43.312;27.152;2022-08-02T09:59:13;100131.93;;;37.30;25.84
34658;BME280;20865;43.312;27.152;2022-08-02T10:01:42;100137.36;;;37.34;25.04
34658;BME280;20865;43.312;27.152;2022-08-02T10:04:11;100125.06;;;37.17;25.18
34658;BME280;20865;43.312;27.152;2022-08-02T10:06:42;100129.38;;;36.90;25.49
34658;BME280;20865;43.312;27.152;2022-08-02T10:09:12;100131.04;;;36.82;25.65
34658;BME280;20865;43.312;27.152;2022-08-02T10:11:40;100136.97;;;36.70;25.84
34658;BME280;20865;43.312;27.152;2022-08-02T10:14:09;100134.31;;;36.66;25.65
34658;BME280;20865;43.312;27.152;2022-08-02T10:16:39;100128.03;;;36.61;26.28
34658;BME280;20865;43.312;27.152;2022-08-02T10:19:07;100135.20;;;36.46;26.03
34658;BME280;20865;43.312;27.152;2022-08-02T10:21:44;100129.19;;;36.63;26.64
34658;BME280;20865;43.312;27.152;2022-08-02T10:24:14;100126.38;;;36.69;25.37
34658;BME280;20865;43.312;27.152;2022-08-02T10:26:44;100129.03;;;36.73;26.39
34658;BME280;20865;43.312;27.152;2022-08-02T10:29:17;100127.16;;;36.61;26.14
34658;BME280;20865;43.312;27.152;2022-08-02T10:31:49;100121.42;;;36.56;25.89
34658;BME280;20865;43.312;27.152;2022-08-02T10:34:17;100129.98;;;36.47;26.00
34658;BME280;20865;43.312;27.152;2022-08-02T10:36:47;100128.93;;;36.48;25.85
34658;BME280;20865;43.312;27.152;2022-08-02T10:39:16;100127.09;;;36.45;25.92
34658;BME280;20865;43.312;27.152;2022-08-02T10:41:46;100129.56;;;36.44;26.13
34658;BME280;20865;43.312;27.152;2022-08-02T10:44:28;100126.17;;;36.29;25.60
34658;BME280;20865;43.312;27.152;2022-08-02T10:47:20;100125.79;;;36.54;25.94
34658;BME280;20865;43.312;27.152;2022-08-02T10:49:53;100118.21;;;36.45;25.98
34658;BME280;20865;43.312;27.152;2022-08-02T10:52:24;100110.95;;;36.44;26.00
34658;BME280;20865;43.312;27.152;2022-08-02T10:55:09;100109.89;;;36.39;26.19
34658;BME280;20865;43.312;27.152;2022-08-02T10:57:32;100110.74;;;36.39;26.38
34658;BME280;20865;43.312;27.152;2022-08-02T11:00:24;100111.47;;;36.51;26.05
34658;BME280;20865;43.312;27.152;2022-08-02T11:02:44;100110.16;;;36.60;25.84
34658;BME280;20865;43.312;27.152;2022-08-02T11:05:17;100109.59;;;36.67;25.45
34658;BME280;20865;43.312;27.152;2022-08-02T11:07:46;100103.79;;;36.98;25.94
34658;BME280;20865;43.312;27.152;2022-08-02T11:10:29;100099.55;;;37.20;26.05
34658;BME280;20865;43.312;27.152;2022-08-02T11:13:09;100100.24;;;37.47;25.43
34658;BME280;20865;43.312;27.152;2022-08-02T11:15:54;100112.08;;;37.52;24.67
34658;BME280;20865;43.312;27.152;2022-08-02T11:21:20;100110.70;;;37.36;25.21
34658;BME280;20865;43.312;27.152;2022-08-02T11:23:49;100111.03;;;37.53;24.31
34658;BME280;20865;43.312;27.152;2022-08-02T11:29:04;100103.43;;;37.19;25.44
34658;BME280;20865;43.312;27.152;2022-08-02T11:31:39;100111.99;;;37.33;25.73
34658;BME280;20865;43.312;27.152;2022-08-02T11:34:07;100109.52;;;37.34;25.28
34658;BME280;20865;43.312;27.152;2022-08-02T11:36:50;100110.20;;;37.30;25.20
34658;BME280;20865;43.312;27.152;2022-08-02T11:39:19;100102.34;;;37.20;24.96
34658;BME280;20865;43.312;27.152;2022-08-02T11:41:56;100100.84;;;37.24;25.23
34658;BME280;20865;43.312;27.152;2022-08-02T11:44:25;100098.52;;;37.30;25.81
34658;BME280;20865;43.312;27.152;2022-08-02T11:47:00;100101.45;;;37.42;25.29
34658;BME280;20865;43.312;27.152;2022-08-02T11:49:29;100105.08;;;37.42;25.60
34658;BME280;20865;43.312;27.152;2022-08-02T11:52:01;100095.28;;;37.33;24.95
34658;BME280;20865;43.312;27.152;2022-08-02T11:54:35;100100.79;;;37.47;24.73
34658;BME280;20865;43.312;27.152;2022-08-02T11:57:14;100096.61;;;37.47;24.13
34658;BME280;20865;43.312;27.152;2022-08-02T11:59:44;100094.92;;;37.55;24.21
34658;BME280;20865;43.312;27.152;2022-08-02T12:02:12;100097.31;;;37.35;24.00
34658;BME280;20865;43.312;27.152;2022-08-02T12:04:40;100095.70;;;37.53;24.66
34658;BME280;20865;43.312;27.152;2022-08-02T12:07:08;100095.00;;;37.41;24.35
34658;BME280;20865;43.312;27.152;2022-08-02T12:09:36;100093.27;;;37.63;24.21
34658;BME280;20865;43.312;27.152;2022-08-02T12:12:04;100083.14;;;37.78;25.06
34658;BME280;20865;43.312;27.152;2022-08-02T12:14:33;100090.51;;;37.81;24.57
34658;BME280;20865;43.312;27.152;2022-08-02T12:17:01;100087.27;;;37.84;23.64
34658;BME280;20865;43.312;27.152;2022-08-02T12:19:47;100093.95;;;37.93;23.30
34658;BME280;20865;43.312;27.152;2022-08-02T12:22:23;100087.78;;;37.75;23.84
34658;BME280;20865;43.312;27.152;2022-08-02T12:24:53;100095.75;;;37.71;23.99
34658;BME280;20865;43.312;27.152;2022-08-02T12:27:39;100087.42;;;37.80;24.07
34658;BME280;20865;43.312;27.152;2022-08-02T12:30:08;100089.50;;;37.85;23.97
34658;BME280;20865;43.312;27.152;2022-08-02T12:32:37;100085.22;;;37.98;24.14
34658;BME280;20865;43.312;27.152;2022-08-02T12:35:13;100087.77;;;38.00;24.02
34658;BME280;20865;43.312;27.152;2022-08-02T12:37:43;100081.52;;;38.04;23.70
34658;BME280;20865;43.312;27.152;2022-08-02T12:42:49;100080.05;;;37.86;23.69
34658;BME280;20865;43.312;27.152;2022-08-02T12:45:18;100082.91;;;37.70;23.77
34658;BME280;20865;43.312;27.152;2022-08-02T12:47:48;100077.48;;;37.66;24.08
34658;BME280;20865;43.312;27.152;2022-08-02T12:50:31;100079.33;;;37.72;23.93
34658;BME280;20865;43.312;27.152;2022-08-02T12:53:08;100072.00;;;37.78;23.79
34658;BME280;20865;43.312;27.152;2022-08-02T12:55:52;100078.79;;;37.63;23.78
34658;BME280;20865;43.312;27.152;2022-08-02T12:58:15;100078.36;;;37.51;23.80
34658;BME280;20865;43.312;27.152;2022-08-02T13:00:54;100071.24;;;37.46;23.67
34658;BME280;20865;43.312;27.152;2022-08-02T13:03:22;100073.23;;;37.48;23.75
34658;BME280;20865;43.312;27.152;2022-08-02T13:05:50;100078.58;;;37.33;24.07
34658;BME280;20865;43.312;27.152;2022-08-02T13:08:18;100074.88;;;37.14;24.32
34658;BME280;20865;43.312;27.152;2022-08-02T13:10:46;100077.01;;;37.03;24.38
34658;BME280;20865;43.312;27.152;2022-08-02T13:13:13;100079.24;;;37.04;24.61
34658;BME280;20865;43.312;27.152;2022-08-02T13:15:41;100078.74;;;36.98;24.74
34658;BME280;20865;43.312;27.152;2022-08-02T13:18:09;100083.33;;;36.94;24.44
34658;BME280;20865;43.312;27.152;2022-08-02T13:20:36;100076.27;;;36.99;24.63
34658;BME280;20865;43.312;27.152;2022-08-02T13:23:04;100075.68;;;37.06;24.79